BAW48T EGLL-EBBR
Flight info
| Callsign | BAW48T |
|---|---|
| Flight time | 0h 42m |
| Altitude | 23000 |
| Route | DET Q70 KOK |
| Aircraft | A319/M-SDE3FGHIRWY/LB1 |
Departure
| Time | 2026-05-07 18:31 |
|---|---|
| Airport | London Heathrow Airport (EGLL) |
Arrival
| Time | 2026-05-07 19:14 |
|---|---|
| Airport | Brussels Airport (EBBR) |
| Time | Latitude | Longitude | Altitude | Speed | Heading |
|---|---|---|---|---|---|
| 2026-05-07 18:11 | 51.46981 | -0.48211 | 79 ft | 0 kts | 90° |
| 2026-05-07 18:22 | 51.46981 | -0.48233 | 79 ft | 2 kts | 90° |
| 2026-05-07 18:22 | 51.46981 | -0.48257 | 78 ft | 2 kts | 90° |
| 2026-05-07 18:23 | 51.46981 | -0.48282 | 78 ft | 2 kts | 90° |
| 2026-05-07 18:23 | 51.46981 | -0.48307 | 78 ft | 2 kts | 90° |
| 2026-05-07 18:23 | 51.46981 | -0.48331 | 78 ft | 2 kts | 108° |
| 2026-05-07 18:23 | 51.46989 | -0.48350 | 78 ft | 2 kts | 146° |
| 2026-05-07 18:24 | 51.47001 | -0.48358 | 78 ft | 0 kts | 175° |
| 2026-05-07 18:24 | 51.47008 | -0.48357 | 78 ft | 1 kts | 181° |
| 2026-05-07 18:24 | 51.47009 | -0.48357 | 78 ft | 0 kts | 180° |
| 2026-05-07 18:26 | 51.47005 | -0.48357 | 77 ft | 1 kts | 180° |
| 2026-05-07 18:27 | 51.46984 | -0.48357 | 78 ft | 3 kts | 179° |
| 2026-05-07 18:27 | 51.46952 | -0.48356 | 79 ft | 5 kts | 179° |
| 2026-05-07 18:27 | 51.46908 | -0.48355 | 79 ft | 7 kts | 180° |
| 2026-05-07 18:27 | 51.46852 | -0.48354 | 80 ft | 8 kts | 179° |
| 2026-05-07 18:28 | 51.46778 | -0.48353 | 79 ft | 12 kts | 183° |
| 2026-05-07 18:28 | 51.46741 | -0.48428 | 78 ft | 5 kts | 264° |
| 2026-05-07 18:28 | 51.46740 | -0.48500 | 77 ft | 7 kts | 271° |
| 2026-05-07 18:28 | 51.46742 | -0.48596 | 77 ft | 10 kts | 270° |
| 2026-05-07 18:29 | 51.46738 | -0.48710 | 77 ft | 8 kts | 256° |
| 2026-05-07 18:29 | 51.46687 | -0.48753 | 77 ft | 9 kts | 178° |
| 2026-05-07 18:29 | 51.46614 | -0.48760 | 77 ft | 11 kts | 202° |
| 2026-05-07 18:29 | 51.46536 | -0.48792 | 77 ft | 12 kts | 178° |
| 2026-05-07 18:30 | 51.46475 | -0.48706 | 77 ft | 13 kts | 106° |
| 2026-05-07 18:30 | 51.46478 | -0.48565 | 77 ft | 12 kts | 91° |
| 2026-05-07 18:30 | 51.46478 | -0.48136 | 78 ft | 75 kts | 90° |
| 2026-05-07 18:30 | 51.46482 | -0.46925 | 78 ft | 140 kts | 90° |
| 2026-05-07 18:31 | 51.46498 | -0.45181 | 457 ft | 161 kts | 91° |
| 2026-05-07 18:31 | 51.46519 | -0.43415 | 1148 ft | 164 kts | 92° |
| 2026-05-07 18:31 | 51.46519 | -0.41614 | 1940 ft | 162 kts | 96° |
| 2026-05-07 18:31 | 51.46177 | -0.39913 | 2439 ft | 174 kts | 129° |
| 2026-05-07 18:32 | 51.45266 | -0.38469 | 2914 ft | 192 kts | 134° |
| 2026-05-07 18:32 | 51.44523 | -0.36624 | 3363 ft | 213 kts | 112° |
| 2026-05-07 18:32 | 51.44023 | -0.34276 | 3855 ft | 234 kts | 108° |
| 2026-05-07 18:32 | 51.43509 | -0.31714 | 4399 ft | 253 kts | 109° |
| 2026-05-07 18:33 | 51.42931 | -0.28971 | 5033 ft | 268 kts | 109° |
| 2026-05-07 18:33 | 51.42339 | -0.26152 | 5705 ft | 270 kts | 107° |
| 2026-05-07 18:33 | 51.41901 | -0.23240 | 6105 ft | 272 kts | 101° |
| 2026-05-07 18:33 | 51.41563 | -0.20262 | 6048 ft | 270 kts | 100° |
| 2026-05-07 18:34 | 51.41219 | -0.17311 | 6019 ft | 269 kts | 101° |
| 2026-05-07 18:34 | 51.40847 | -0.14360 | 6003 ft | 268 kts | 102° |
| 2026-05-07 18:34 | 51.40463 | -0.11469 | 6000 ft | 268 kts | 103° |
| 2026-05-07 18:34 | 51.40063 | -0.08532 | 5999 ft | 269 kts | 103° |
| 2026-05-07 18:35 | 51.39661 | -0.05623 | 5999 ft | 269 kts | 103° |
| 2026-05-07 18:35 | 51.39253 | -0.02685 | 5996 ft | 269 kts | 103° |
| 2026-05-07 18:35 | 51.38847 | 0.00223 | 5997 ft | 269 kts | 103° |
| 2026-05-07 18:35 | 51.38440 | 0.03140 | 5995 ft | 269 kts | 103° |
| 2026-05-07 18:36 | 51.38036 | 0.06037 | 5996 ft | 269 kts | 103° |
| 2026-05-07 18:36 | 51.37631 | 0.08936 | 5997 ft | 270 kts | 103° |
| 2026-05-07 18:36 | 51.37221 | 0.11853 | 6002 ft | 269 kts | 103° |
| 2026-05-07 18:36 | 51.36803 | 0.14831 | 6199 ft | 276 kts | 103° |
| 2026-05-07 18:37 | 51.36387 | 0.17797 | 7076 ft | 279 kts | 103° |
| 2026-05-07 18:37 | 51.35966 | 0.20790 | 8090 ft | 278 kts | 103° |
| 2026-05-07 18:37 | 51.35540 | 0.23813 | 8978 ft | 282 kts | 104° |
| 2026-05-07 18:37 | 51.35107 | 0.26878 | 9831 ft | 286 kts | 104° |
| 2026-05-07 18:38 | 51.34668 | 0.29971 | 10605 ft | 293 kts | 104° |
| 2026-05-07 18:38 | 51.34203 | 0.33226 | 11089 ft | 310 kts | 104° |
| 2026-05-07 18:38 | 51.33711 | 0.36665 | 11495 ft | 328 kts | 104° |
| 2026-05-07 18:38 | 51.33191 | 0.40300 | 11896 ft | 346 kts | 103° |
| 2026-05-07 18:39 | 51.32647 | 0.44100 | 12510 ft | 354 kts | 103° |
| 2026-05-07 18:39 | 51.32102 | 0.47912 | 13275 ft | 358 kts | 103° |
| 2026-05-07 18:39 | 51.31546 | 0.51782 | 14006 ft | 361 kts | 103° |
| 2026-05-07 18:39 | 51.30990 | 0.55676 | 14705 ft | 365 kts | 103° |
| 2026-05-07 18:40 | 51.30537 | 0.59664 | 15357 ft | 370 kts | 99° |
| 2026-05-07 18:40 | 51.30248 | 0.63792 | 16024 ft | 375 kts | 95° |
| 2026-05-07 18:40 | 51.30085 | 0.67956 | 16661 ft | 379 kts | 94° |
| 2026-05-07 18:40 | 51.29942 | 0.72132 | 17281 ft | 383 kts | 94° |
| 2026-05-07 18:41 | 51.29794 | 0.76417 | 17885 ft | 387 kts | 94° |
| 2026-05-07 18:41 | 51.29643 | 0.80703 | 18488 ft | 391 kts | 94° |
| 2026-05-07 18:41 | 51.29487 | 0.85006 | 19083 ft | 394 kts | 94° |
| 2026-05-07 18:41 | 51.29325 | 0.89410 | 19645 ft | 398 kts | 94° |
| 2026-05-07 18:42 | 51.29161 | 0.93765 | 20188 ft | 401 kts | 94° |
| 2026-05-07 18:42 | 51.28989 | 0.98264 | 20734 ft | 405 kts | 94° |
| 2026-05-07 18:42 | 51.28817 | 1.02727 | 21263 ft | 408 kts | 94° |
| 2026-05-07 18:42 | 51.28642 | 1.07246 | 21774 ft | 411 kts | 94° |
| 2026-05-07 18:43 | 51.28462 | 1.11850 | 22270 ft | 415 kts | 94° |
| 2026-05-07 18:43 | 51.28280 | 1.16445 | 22748 ft | 418 kts | 94° |
| 2026-05-07 18:43 | 51.28096 | 1.21043 | 23035 ft | 410 kts | 94° |
| 2026-05-07 18:43 | 51.27914 | 1.25548 | 23058 ft | 404 kts | 94° |
| 2026-05-07 18:44 | 51.27755 | 1.29997 | 23058 ft | 402 kts | 93° |
| 2026-05-07 18:44 | 51.27622 | 1.34434 | 23057 ft | 402 kts | 93° |
| 2026-05-07 18:44 | 51.27493 | 1.38834 | 23061 ft | 402 kts | 93° |
| 2026-05-07 18:44 | 51.27361 | 1.43266 | 23060 ft | 401 kts | 93° |
| 2026-05-07 18:45 | 51.27226 | 1.47720 | 23062 ft | 402 kts | 93° |
| 2026-05-07 18:45 | 51.27089 | 1.52124 | 23060 ft | 401 kts | 93° |
| 2026-05-07 18:45 | 51.26948 | 1.56611 | 23062 ft | 401 kts | 93° |
| 2026-05-07 18:45 | 51.26806 | 1.61044 | 23058 ft | 401 kts | 93° |
| 2026-05-07 18:46 | 51.26660 | 1.65525 | 23061 ft | 401 kts | 94° |
| 2026-05-07 18:46 | 51.26513 | 1.69996 | 23058 ft | 402 kts | 94° |
| 2026-05-07 18:46 | 51.26366 | 1.74419 | 23059 ft | 401 kts | 94° |
| 2026-05-07 18:46 | 51.26218 | 1.78806 | 23058 ft | 401 kts | 94° |
| 2026-05-07 18:47 | 51.26066 | 1.83271 | 23061 ft | 401 kts | 94° |
| 2026-05-07 18:47 | 51.25915 | 1.87670 | 23058 ft | 401 kts | 94° |
| 2026-05-07 18:47 | 51.25761 | 1.92091 | 23061 ft | 401 kts | 94° |
| 2026-05-07 18:47 | 51.25606 | 1.96517 | 23061 ft | 401 kts | 94° |
| 2026-05-07 18:48 | 51.25447 | 2.00980 | 23062 ft | 401 kts | 94° |
| 2026-05-07 18:48 | 51.25289 | 2.05381 | 23059 ft | 401 kts | 94° |
| 2026-05-07 18:48 | 51.25129 | 2.09796 | 23060 ft | 401 kts | 94° |
| 2026-05-07 18:48 | 51.24965 | 2.14263 | 23058 ft | 401 kts | 94° |
| 2026-05-07 18:49 | 51.24802 | 2.18630 | 23058 ft | 401 kts | 94° |
| 2026-05-07 18:49 | 51.24633 | 2.23104 | 23060 ft | 401 kts | 94° |
| 2026-05-07 18:49 | 51.24466 | 2.27496 | 23057 ft | 401 kts | 94° |
| 2026-05-07 18:49 | 51.24297 | 2.31924 | 23059 ft | 401 kts | 94° |
| 2026-05-07 18:50 | 51.24126 | 2.36347 | 23063 ft | 401 kts | 94° |
| 2026-05-07 18:50 | 51.23951 | 2.40807 | 23066 ft | 400 kts | 94° |
| 2026-05-07 18:50 | 51.23779 | 2.45196 | 23061 ft | 400 kts | 94° |
| 2026-05-07 18:50 | 51.23609 | 2.49594 | 23061 ft | 400 kts | 94° |
| 2026-05-07 18:51 | 51.23434 | 2.54041 | 23063 ft | 400 kts | 94° |
| 2026-05-07 18:51 | 51.23258 | 2.58439 | 23061 ft | 399 kts | 94° |
| 2026-05-07 18:51 | 51.23080 | 2.62840 | 23061 ft | 399 kts | 94° |
| 2026-05-07 18:51 | 51.22899 | 2.67240 | 23059 ft | 399 kts | 95° |
| 2026-05-07 18:52 | 51.22715 | 2.71682 | 23063 ft | 399 kts | 95° |
| 2026-05-07 18:52 | 51.22529 | 2.76096 | 23064 ft | 400 kts | 95° |
| 2026-05-07 18:52 | 51.22342 | 2.80502 | 23041 ft | 400 kts | 95° |
| 2026-05-07 18:52 | 51.22155 | 2.84880 | 22784 ft | 398 kts | 95° |
| 2026-05-07 18:53 | 51.21966 | 2.89247 | 22523 ft | 397 kts | 95° |
| 2026-05-07 18:53 | 51.21775 | 2.93606 | 22261 ft | 395 kts | 94° |
| 2026-05-07 18:53 | 51.21584 | 2.97961 | 21999 ft | 393 kts | 94° |
| 2026-05-07 18:53 | 51.21392 | 3.02291 | 21734 ft | 391 kts | 94° |
| 2026-05-07 18:54 | 51.21199 | 3.06634 | 21474 ft | 389 kts | 94° |
| 2026-05-07 18:54 | 51.21007 | 3.10895 | 21214 ft | 387 kts | 94° |
| 2026-05-07 18:54 | 51.20814 | 3.15171 | 20950 ft | 386 kts | 94° |
| 2026-05-07 18:54 | 51.20621 | 3.19379 | 20665 ft | 384 kts | 94° |
| 2026-05-07 18:55 | 51.20427 | 3.23583 | 20313 ft | 381 kts | 94° |
| 2026-05-07 18:55 | 51.20232 | 3.27778 | 19904 ft | 379 kts | 94° |
| 2026-05-07 18:55 | 51.20036 | 3.31980 | 19477 ft | 376 kts | 94° |
| 2026-05-07 18:55 | 51.19842 | 3.36072 | 19062 ft | 373 kts | 94° |
| 2026-05-07 18:56 | 51.19648 | 3.40146 | 18639 ft | 371 kts | 94° |
| 2026-05-07 18:56 | 51.19452 | 3.44240 | 18198 ft | 368 kts | 94° |
| 2026-05-07 18:56 | 51.19257 | 3.48285 | 17759 ft | 365 kts | 94° |
| 2026-05-07 18:56 | 51.19060 | 3.52315 | 17329 ft | 363 kts | 94° |
| 2026-05-07 18:57 | 51.18867 | 3.56273 | 16907 ft | 360 kts | 94° |
| 2026-05-07 18:57 | 51.18673 | 3.60204 | 16489 ft | 357 kts | 94° |
| 2026-05-07 18:57 | 51.18479 | 3.64110 | 16120 ft | 354 kts | 94° |
| 2026-05-07 18:57 | 51.18284 | 3.68026 | 16055 ft | 355 kts | 95° |
| 2026-05-07 18:58 | 51.18087 | 3.71931 | 16059 ft | 355 kts | 95° |
| 2026-05-07 18:58 | 51.17889 | 3.75843 | 16054 ft | 355 kts | 95° |
| 2026-05-07 18:58 | 51.17691 | 3.79741 | 16055 ft | 355 kts | 95° |
| 2026-05-07 18:58 | 51.17488 | 3.83691 | 16032 ft | 356 kts | 95° |
| 2026-05-07 18:59 | 51.17039 | 3.87521 | 15473 ft | 358 kts | 111° |
| 2026-05-07 18:59 | 51.15814 | 3.90922 | 14839 ft | 358 kts | 128° |
| 2026-05-07 18:59 | 51.14231 | 3.93966 | 14238 ft | 358 kts | 131° |
| 2026-05-07 18:59 | 51.12618 | 3.96884 | 13684 ft | 341 kts | 132° |
| 2026-05-07 19:00 | 51.11096 | 3.99602 | 13181 ft | 324 kts | 132° |
| 2026-05-07 19:00 | 51.09617 | 4.02236 | 12652 ft | 310 kts | 132° |
| 2026-05-07 19:00 | 51.08221 | 4.04719 | 12119 ft | 299 kts | 132° |
| 2026-05-07 19:00 | 51.06834 | 4.07181 | 11577 ft | 300 kts | 132° |
| 2026-05-07 19:01 | 51.05468 | 4.09605 | 11059 ft | 299 kts | 132° |
| 2026-05-07 19:01 | 51.04163 | 4.12135 | 10532 ft | 294 kts | 120° |
| 2026-05-07 19:01 | 51.03536 | 4.15175 | 10120 ft | 292 kts | 94° |
| 2026-05-07 19:01 | 51.03760 | 4.18366 | 9732 ft | 289 kts | 76° |
| 2026-05-07 19:02 | 51.04302 | 4.21420 | 9359 ft | 288 kts | 73° |
| 2026-05-07 19:02 | 51.04892 | 4.24428 | 8987 ft | 286 kts | 72° |
| 2026-05-07 19:02 | 51.05491 | 4.27436 | 8607 ft | 284 kts | 72° |
| 2026-05-07 19:02 | 51.06079 | 4.30373 | 8321 ft | 280 kts | 72° |
| 2026-05-07 19:03 | 51.06672 | 4.33322 | 8092 ft | 279 kts | 72° |
| 2026-05-07 19:03 | 51.07262 | 4.36253 | 8064 ft | 279 kts | 72° |
| 2026-05-07 19:03 | 51.07855 | 4.39206 | 8059 ft | 279 kts | 72° |
| 2026-05-07 19:03 | 51.08445 | 4.42146 | 7940 ft | 280 kts | 72° |
| 2026-05-07 19:04 | 51.09034 | 4.45076 | 7615 ft | 279 kts | 72° |
| 2026-05-07 19:04 | 51.09623 | 4.48004 | 7262 ft | 276 kts | 72° |
| 2026-05-07 19:04 | 51.10205 | 4.50874 | 6911 ft | 274 kts | 72° |
| 2026-05-07 19:04 | 51.10791 | 4.53756 | 6560 ft | 272 kts | 72° |
| 2026-05-07 19:05 | 51.11369 | 4.56599 | 6210 ft | 270 kts | 72° |
| 2026-05-07 19:05 | 51.11940 | 4.59414 | 5885 ft | 267 kts | 72° |
| 2026-05-07 19:05 | 51.12498 | 4.62182 | 5563 ft | 265 kts | 72° |
| 2026-05-07 19:05 | 51.12976 | 4.65015 | 5224 ft | 263 kts | 85° |
| 2026-05-07 19:06 | 51.12746 | 4.67865 | 4942 ft | 262 kts | 107° |
| 2026-05-07 19:06 | 51.11410 | 4.73204 | 4391 ft | 260 kts | 112° |
| 2026-05-07 19:06 | 51.10702 | 4.75813 | 4125 ft | 258 kts | 112° |
| 2026-05-07 19:07 | 51.09830 | 4.78307 | 3837 ft | 256 kts | 131° |
| 2026-05-07 19:07 | 51.08423 | 4.79862 | 3581 ft | 247 kts | 156° |
| 2026-05-07 19:07 | 51.06814 | 4.80758 | 3328 ft | 238 kts | 162° |
| 2026-05-07 19:07 | 51.05270 | 4.81482 | 3087 ft | 230 kts | 162° |
| 2026-05-07 19:08 | 51.03734 | 4.82167 | 2982 ft | 229 kts | 162° |
| 2026-05-07 19:08 | 51.02198 | 4.82837 | 2975 ft | 230 kts | 162° |
| 2026-05-07 19:08 | 51.00653 | 4.83440 | 2972 ft | 231 kts | 172° |
| 2026-05-07 19:08 | 50.99086 | 4.83077 | 2956 ft | 225 kts | 206° |
| 2026-05-07 19:09 | 50.97854 | 4.81705 | 2970 ft | 211 kts | 220° |
| 2026-05-07 19:09 | 50.96822 | 4.80123 | 2962 ft | 202 kts | 229° |
| 2026-05-07 19:09 | 50.96026 | 4.78373 | 2959 ft | 194 kts | 240° |
| 2026-05-07 19:09 | 50.95435 | 4.76441 | 2969 ft | 193 kts | 249° |
| 2026-05-07 19:10 | 50.94985 | 4.74456 | 2974 ft | 192 kts | 252° |
| 2026-05-07 19:10 | 50.94557 | 4.72446 | 2839 ft | 193 kts | 251° |
| 2026-05-07 19:10 | 50.94119 | 4.70475 | 2565 ft | 191 kts | 250° |
| 2026-05-07 19:10 | 50.93662 | 4.68501 | 2292 ft | 191 kts | 250° |
| 2026-05-07 19:11 | 50.93193 | 4.66505 | 2021 ft | 190 kts | 250° |
| 2026-05-07 19:11 | 50.92743 | 4.64588 | 1766 ft | 180 kts | 250° |
| 2026-05-07 19:11 | 50.92329 | 4.62820 | 1541 ft | 164 kts | 250° |
| 2026-05-07 19:11 | 50.91950 | 4.61190 | 1302 ft | 152 kts | 250° |
| 2026-05-07 19:12 | 50.91602 | 4.59684 | 1069 ft | 141 kts | 251° |
| 2026-05-07 19:12 | 50.91270 | 4.58257 | 903 ft | 139 kts | 250° |
| 2026-05-07 19:12 | 50.90935 | 4.56824 | 735 ft | 138 kts | 250° |
| 2026-05-07 19:12 | 50.90603 | 4.55396 | 578 ft | 137 kts | 250° |
| 2026-05-07 19:13 | 50.90278 | 4.53985 | 400 ft | 136 kts | 250° |
| 2026-05-07 19:13 | 50.89959 | 4.52593 | 225 ft | 134 kts | 250° |
| 2026-05-07 19:13 | 50.89650 | 4.51258 | 153 ft | 117 kts | 250° |
| 2026-05-07 19:13 | 50.89422 | 4.50286 | 155 ft | 63 kts | 250° |
| 2026-05-07 19:14 | 50.89334 | 4.49886 | 156 ft | 25 kts | 259° |
| 2026-05-07 19:14 | 50.89373 | 4.49661 | 155 ft | 24 kts | 306° |